Time;durP1;ratioP1;P1;durP2;ratioP2;P2;SDS_P1;SDS_P2;PMS_P1;PMS_P2;Temp;Humidity;BMP_temperature;BMP_pressure;BME280_temperature;BME280_humidity;BME280_pressure;Samples;Min_cycle;Max_cycle;Signal;HPM_P1;HPM_P2
2022/08/21 00:01:41;;;;;;;;;;;;;;;;;;4807215;29;19960;-48
2022/08/21 00:04:08;;;;;;;;;;;;;;;;;;4807138;29;20289;-50
2022/08/21 00:06:36;;;;;;;;;;;;;;;;;;4806855;29;19932;-47
2022/08/21 00:09:05;;;;;;;;;;;;;;;;;;4807019;29;19933;-48
2022/08/21 00:11:34;;;;;;;;;;;;;;;;;;4807243;29;19931;-49
2022/08/21 00:14:03;;;;;;;;;;;;;;;;;;4807145;29;20294;-47
2022/08/21 00:16:30;;;;;;;;;;;;;;;;;;4806991;29;20309;-47
2022/08/21 00:18:57;;;;;;;;;;;;;;;;;;4806917;29;20412;-49
2022/08/21 00:21:25;;;;;;;;;;;;;;;;;;4806648;29;19966;-46
2022/08/21 00:23:52;;;;;;;;;;;;;;;;;;4806843;29;20020;-50
2022/08/21 00:26:19;;;;;;;;;;;;;;;;;;4806612;29;19968;-46
2022/08/21 00:28:48;;;;;;;;;;;;;;;;;;4806673;29;19925;-46
2022/08/21 00:31:16;;;;;;;;;;;;;;;;;;4806770;29;19925;-48
2022/08/21 00:33:43;;;;;;;;;;;;;;;;;;4806707;29;19948;-48
2022/08/21 00:36:11;;;;;;;;;;;;;;;;;;4806623;29;19933;-47
2022/08/21 00:38:38;;;;;;;;;;;;;;;;;;4806450;29;19981;-47
2022/08/21 00:41:06;;;;;;;;;;;;;;;;;;4806451;29;19925;-48
2022/08/21 00:43:53;;;;;;;;;;;;;;;;;;4806615;29;20389;-47
2022/08/21 00:46:20;;;;;;;;;;;;;;;;;;4806767;29;19931;-50
2022/08/21 00:48:48;;;;;;;;;;;;;;;;;;4806229;29;20312;-51
2022/08/21 00:51:28;;;;;;;;;;;;;;;;;;4805906;29;19935;-45
2022/08/21 00:53:57;;;;;;;;;;;;;;;;;;4806115;29;19925;-46
2022/08/21 00:56:24;;;;;;;;;;;;;;;;;;4806144;29;19932;-47
2022/08/21 00:58:52;;;;;;;;;;;;;;;;;;4805760;29;20385;-48
2022/08/21 01:01:20;;;;;;;;;;;;;;;;;;4805171;29;19925;-47
2022/08/21 01:03:48;;;;;;;;;;;;;;;;;;4806233;29;20382;-51
2022/08/21 01:06:15;;;;;;;;;;;;;;;;;;4805913;29;19929;-47
2022/08/21 01:08:43;;;;;;;;;;;;;;;;;;4805784;29;19925;-49
2022/08/21 01:11:13;;;;;;;;;;;;;;;;;;4806233;29;19965;-47
2022/08/21 01:13:44;;;;;;;;;;;;;;;;;;4805834;29;20012;-48
2022/08/21 01:16:13;;;;;;;;;;;;;;;;;;4806034;29;20293;-51
2022/08/21 01:18:40;;;;;;;;;;;;;;;;;;4805477;29;19931;-48
2022/08/21 01:21:12;;;;;;;;;;;;;;;;;;4823593;29;19931;-47
2022/08/21 01:23:42;;;;;;;;;;;;;;;;;;4823883;29;19925;-47
2022/08/21 01:26:10;;;;;;;;;;;;;;;;;;4824028;29;19924;-46
2022/08/21 01:28:43;;;;;;;;;;;;;;;;;;4823659;29;20319;-47
2022/08/21 01:31:12;;;;;;;;;;;;;;;;;;4823072;29;19925;-46
2022/08/21 01:33:39;;;;;;;;;;;;;;;;;;4823754;29;19924;-48
2022/08/21 01:36:06;;;;;;;;;;;;;;;;;;4823538;29;20399;-49
2022/08/21 01:38:33;;;;;;;;;;;;;;;;;;4823622;29;19932;-46
2022/08/21 01:41:00;;;;;;;;;;;;;;;;;;4823987;29;19924;-47
2022/08/21 01:43:27;;;;;;;;;;;;;;;;;;4823824;29;20359;-46
2022/08/21 01:45:59;;;;;;;;;;;;;;;;;;4824281;29;20297;-46
2022/08/21 01:48:29;;;;;;;;;;;;;;;;;;4823772;29;19924;-48
2022/08/21 01:50:56;;;;;;;;;;;;;;;;;;4823752;29;19973;-48
2022/08/21 01:53:23;;;;;;;;;;;;;;;;;;4823493;29;19933;-48
2022/08/21 01:55:53;;;;;;;;;;;;;;;;;;4818982;29;19928;-46
2022/08/21 01:58:20;;;;;;;;;;;;;;;;;;4805125;29;19968;-47
2022/08/21 02:00:49;;;;;;;;;;;;;;;;;;4805421;29;19925;-47
2022/08/21 02:03:21;;;;;;;;;;;;;;;;;;4805170;29;19947;-49
2022/08/21 02:06:01;;;;;;;;;;;;;;;;;;4817845;29;20011;-49
2022/08/21 02:08:28;;;;;;;;;;;;;;;;;;4805114;29;20373;-50
2022/08/21 02:10:55;;;;;;;;;;;;;;;;;;4819079;29;19950;-47
2022/08/21 02:13:22;;;;;;;;;;;;;;;;;;4804617;29;19925;-50
2022/08/21 02:15:49;;;;;;;;;;;;;;;;;;4805216;29;19925;-50
2022/08/21 02:18:17;;;;;;;;;;;;;;;;;;4804679;29;19932;-48
2022/08/21 02:20:45;;;;;;;;;;;;;;;;;;4819770;29;19984;-50
2022/08/21 02:23:13;;;;;;;;;;;;;;;;;;4813471;29;19925;-47
2022/08/21 02:25:40;;;;;;;;;;;;;;;;;;4804938;29;19925;-50
2022/08/21 02:28:09;;;;;;;;;;;;;;;;;;4805126;29;19975;-45
2022/08/21 02:30:39;;;;;;;;;;;;;;;;;;4804970;29;20015;-47
2022/08/21 02:33:07;;;;;;;;;;;;;;;;;;4805207;29;20004;-48
2022/08/21 02:35:34;;;;;;;;;;;;;;;;;;4805147;29;19925;-48
2022/08/21 02:38:03;;;;;;;;;;;;;;;;;;4804994;29;19925;-48
2022/08/21 02:40:32;;;;;;;;;;;;;;;;;;4804868;29;19929;-46
2022/08/21 02:43:00;;;;;;;;;;;;;;;;;;4805150;29;19925;-50
2022/08/21 02:45:28;;;;;;;;;;;;;;;;;;4804646;29;19925;-45
2022/08/21 02:47:57;;;;;;;;;;;;;;;;;;4804990;29;19954;-49
2022/08/21 02:50:26;;;;;;;;;;;;;;;;;;4804780;29;20305;-50
2022/08/21 02:52:54;;;;;;;;;;;;;;;;;;4804980;29;20352;-47
2022/08/21 02:55:26;;;;;;;;;;;;;;;;;;4804895;29;19932;-45
2022/08/21 02:57:54;;;;;;;;;;;;;;;;;;4804599;29;19932;-50
2022/08/21 03:00:24;;;;;;;;;;;;;;;;;;4804539;29;19932;-45
2022/08/21 03:02:51;;;;;;;;;;;;;;;;;;4818432;29;19932;-48
2022/08/21 03:05:19;;;;;;;;;;;;;;;;;;4804709;29;19929;-48
2022/08/21 03:07:47;;;;;;;;;;;;;;;;;;4804746;29;19929;-47
2022/08/21 03:10:14;;;;;;;;;;;;;;;;;;4804656;29;19933;-45
2022/08/21 03:12:41;;;;;;;;;;;;;;;;;;4804372;29;19929;-47
2022/08/21 03:15:14;;;;;;;;;;;;;;;;;;4804884;29;20404;-50
2022/08/21 03:17:41;;;;;;;;;;;;;;;;;;4804600;29;19929;-46
2022/08/21 03:20:08;;;;;;;;;;;;;;;;;;4814859;29;19925;-52
2022/08/21 03:22:35;;;;;;;;;;;;;;;;;;4822668;29;20342;-45
2022/08/21 03:25:03;;;;;;;;;;;;;;;;;;4838220;29;20381;-47
2022/08/21 03:27:33;;;;;;;;;;;;;;;;;;4808029;29;20019;-48
2022/08/21 03:30:02;;;;;;;;;;;;;;;;;;4807519;29;20045;-47
2022/08/21 03:32:31;;;;;;;;;;;;;;;;;;4807585;29;20012;-46
2022/08/21 03:35:00;;;;;;;;;;;;;;;;;;4807903;29;19925;-48
2022/08/21 03:37:27;;;;;;;;;;;;;;;;;;4806239;29;19929;-46
2022/08/21 03:39:54;;;;;;;;;;;;;;;;;;4807233;29;19961;-49
2022/08/21 03:42:22;;;;;;;;;;;;;;;;;;4807504;29;19925;-49
2022/08/21 03:44:49;;;;;;;;;;;;;;;;;;4807565;29;19929;-48
2022/08/21 03:47:16;;;;;;;;;;;;;;;;;;4807337;29;19925;-52
2022/08/21 03:49:44;;;;;;;;;;;;;;;;;;4807330;29;19961;-50
2022/08/21 03:52:11;;;;;;;;;;;;;;;;;;4807464;29;19964;-50
2022/08/21 03:54:41;;;;;;;;;;;;;;;;;;4807272;29;19952;-49
2022/08/21 03:57:09;;;;;;;;;;;;;;;;;;4807179;29;19932;-52
2022/08/21 03:59:36;;;;;;;;;;;;;;;;;;4807317;29;19940;-47
2022/08/21 04:02:04;;;;;;;;;;;;;;;;;;4807208;29;19925;-49
2022/08/21 04:04:32;;;;;;;;;;;;;;;;;;4807463;29;19928;-52
2022/08/21 04:06:59;;;;;;;;;;;;;;;;;;4807421;29;19925;-47
2022/08/21 04:09:27;;;;;;;;;;;;;;;;;;4807007;29;20004;-50
2022/08/21 04:11:54;;;;;;;;;;;;;;;;;;4807133;29;20461;-49
2022/08/21 04:14:22;;;;;;;;;;;;;;;;;;4807090;29;20020;-49
2022/08/21 04:16:49;;;;;;;;;;;;;;;;;;4807021;29;19998;-48
2022/08/21 04:19:16;;;;;;;;;;;;;;;;;;4810451;29;19925;-49
2022/08/21 04:21:43;;;;;;;;;;;;;;;;;;4812173;29;19925;-48
2022/08/21 04:24:10;;;;;;;;;;;;;;;;;;4806547;29;19925;-49
2022/08/21 04:26:38;;;;;;;;;;;;;;;;;;4806885;29;19979;-49
2022/08/21 04:29:08;;;;;;;;;;;;;;;;;;4806960;29;20424;-48
2022/08/21 04:31:36;;;;;;;;;;;;;;;;;;4806637;29;19929;-45
2022/08/21 04:34:04;;;;;;;;;;;;;;;;;;4807138;29;20393;-48
2022/08/21 04:36:32;;;;;;;;;;;;;;;;;;4806599;29;20381;-47
2022/08/21 04:38:59;;;;;;;;;;;;;;;;;;4820511;29;20304;-51
2022/08/21 04:41:28;;;;;;;;;;;;;;;;;;4806714;29;20016;-47
2022/08/21 04:43:55;;;;;;;;;;;;;;;;;;4820493;29;19977;-49
2022/08/21 04:46:22;;;;;;;;;;;;;;;;;;4806364;29;19924;-47
2022/08/21 04:48:49;;;;;;;;;;;;;;;;;;4806518;29;19963;-46
2022/08/21 04:51:25;;;;;;;;;;;;;;;;;;4806373;29;19982;-45
2022/08/21 04:53:54;;;;;;;;;;;;;;;;;;4806303;29;20016;-48
2022/08/21 04:56:24;;;;;;;;;;;;;;;;;;4806525;29;20343;-51
2022/08/21 04:58:55;;;;;;;;;;;;;;;;;;4806313;29;19940;-45
2022/08/21 05:01:24;;;;;;;;;;;;;;;;;;4806387;29;19933;-49
2022/08/21 05:03:54;;;;;;;;;;;;;;;;;;4806069;29;20749;-47
2022/08/21 05:06:22;;;;;;;;;;;;;;;;;;4806160;29;19925;-50
2022/08/21 05:08:50;;;;;;;;;;;;;;;;;;4805990;29;19925;-49
2022/08/21 05:11:17;;;;;;;;;;;;;;;;;;4805879;29;20441;-48
2022/08/21 05:13:45;;;;;;;;;;;;;;;;;;4805997;29;19925;-47
2022/08/21 05:16:12;;;;;;;;;;;;;;;;;;4805925;29;19948;-51
2022/08/21 05:18:39;;;;;;;;;;;;;;;;;;4805602;29;20008;-46
2022/08/21 05:21:06;;;;;;;;;;;;;;;;;;4823727;29;20012;-47
2022/08/21 05:23:33;;;;;;;;;;;;;;;;;;4824091;29;20305;-51
2022/08/21 05:26:01;;;;;;;;;;;;;;;;;;4824007;29;19993;-47
2022/08/21 05:28:28;;;;;;;;;;;;;;;;;;4823928;29;19979;-51
2022/08/21 05:30:55;;;;;;;;;;;;;;;;;;4837719;29;20354;-50
2022/08/21 05:33:22;;;;;;;;;;;;;;;;;;4823893;29;19924;-47
2022/08/21 05:35:51;;;;;;;;;;;;;;;;;;4823978;29;19931;-51
2022/08/21 05:38:18;;;;;;;;;;;;;;;;;;4823887;29;19925;-47
2022/08/21 05:40:46;;;;;;;;;;;;;;;;;;4823903;29;19928;-51
2022/08/21 05:43:14;;;;;;;;;;;;;;;;;;4823583;29;19924;-45
2022/08/21 05:45:41;;;;;;;;;;;;;;;;;;4823906;29;20330;-49
2022/08/21 05:48:11;;;;;;;;;;;;;;;;;;4823186;29;19958;-46
2022/08/21 05:50:39;;;;;;;;;;;;;;;;;;4823380;29;20300;-48
2022/08/21 05:53:06;;;;;;;;;;;;;;;;;;4823526;29;20286;-48
2022/08/21 05:55:35;;;;;;;;;;;;;;;;;;4823788;29;19981;-52
2022/08/21 05:58:04;;;;;;;;;;;;;;;;;;4823707;29;19928;-48
2022/08/21 06:00:32;;;;;;;;;;;;;;;;;;4823740;29;19924;-47
2022/08/21 06:02:59;;;;;;;;;;;;;;;;;;4823335;29;20362;-50
2022/08/21 06:05:26;;;;;;;;;;;;;;;;;;4823210;29;19932;-48
2022/08/21 06:08:03;;;;;;;;;;;;;;;;;;4823527;29;20373;-49
2022/08/21 06:10:30;;;;;;;;;;;;;;;;;;4817191;29;19929;-46
2022/08/21 06:12:57;;;;;;;;;;;;;;;;;;4805129;29;20394;-50
2022/08/21 06:15:24;;;;;;;;;;;;;;;;;;4804943;29;19929;-48
2022/08/21 06:17:52;;;;;;;;;;;;;;;;;;4805220;29;20450;-48
2022/08/21 06:20:19;;;;;;;;;;;;;;;;;;4816658;29;20286;-49
2022/08/21 06:22:46;;;;;;;;;;;;;;;;;;4823187;29;19929;-46
2022/08/21 06:25:13;;;;;;;;;;;;;;;;;;4823050;29;19932;-45
2022/08/21 06:27:40;;;;;;;;;;;;;;;;;;4823334;29;20357;-48
2022/08/21 06:30:08;;;;;;;;;;;;;;;;;;4822858;29;20018;-47
2022/08/21 06:32:35;;;;;;;;;;;;;;;;;;4823005;29;19973;-45
2022/08/21 06:35:03;;;;;;;;;;;;;;;;;;4823113;29;19925;-48
2022/08/21 06:37:31;;;;;;;;;;;;;;;;;;4823043;29;19947;-48
2022/08/21 06:39:58;;;;;;;;;;;;;;;;;;4823049;29;20015;-47
2022/08/21 06:42:27;;;;;;;;;;;;;;;;;;4823179;29;20012;-48
2022/08/21 06:44:56;;;;;;;;;;;;;;;;;;4823260;29;19929;-50
2022/08/21 06:47:23;;;;;;;;;;;;;;;;;;4822919;29;20019;-47
2022/08/21 06:49:50;;;;;;;;;;;;;;;;;;4823002;29;19925;-48
2022/08/21 06:52:17;;;;;;;;;;;;;;;;;;4822770;29;19928;-45
2022/08/21 06:54:45;;;;;;;;;;;;;;;;;;4822818;29;19924;-47
2022/08/21 06:57:12;;;;;;;;;;;;;;;;;;4822891;29;19924;-50
2022/08/21 06:59:39;;;;;;;;;;;;;;;;;;4822311;29;20015;-42
2022/08/21 07:02:07;;;;;;;;;;;;;;;;;;4807393;29;20087;-49
2022/08/21 07:04:34;;;;;;;;;;;;;;;;;;4807526;29;19932;-48
2022/08/21 07:07:01;;;;;;;;;;;;;;;;;;4808444;29;20074;-50
2022/08/21 07:09:28;;;;;;;;;;;;;;;;;;4806688;29;19925;-49
2022/08/21 07:11:56;;;;;;;;;;;;;;;;;;4807439;29;20017;-50
2022/08/21 07:14:23;;;;;;;;;;;;;;;;;;4807936;29;19935;-46
2022/08/21 07:16:51;;;;;;;;;;;;;;;;;;4807907;29;19929;-50
2022/08/21 07:19:18;;;;;;;;;;;;;;;;;;4811445;29;20642;-48
2022/08/21 07:21:46;;;;;;;;;;;;;;;;;;4825830;29;19925;-47
2022/08/21 07:24:13;;;;;;;;;;;;;;;;;;4825582;29;20341;-49
2022/08/21 07:26:40;;;;;;;;;;;;;;;;;;4825851;29;19935;-45
2022/08/21 07:29:08;;;;;;;;;;;;;;;;;;4825407;29;19968;-47
2022/08/21 07:31:35;;;;;;;;;;;;;;;;;;4825551;29;20373;-46
2022/08/21 07:34:02;;;;;;;;;;;;;;;;;;4825829;29;19935;-48
2022/08/21 07:36:30;;;;;;;;;;;;;;;;;;4825384;29;19960;-45
2022/08/21 07:38:59;;;;;;;;;;;;;;;;;;4825259;29;19925;-48
2022/08/21 07:41:28;;;;;;;;;;;;;;;;;;4825266;29;20397;-46
2022/08/21 07:43:57;;;;;;;;;;;;;;;;;;4825575;29;19929;-47
2022/08/21 07:46:24;;;;;;;;;;;;;;;;;;4825514;29;19950;-49
2022/08/21 07:48:52;;;;;;;;;;;;;;;;;;4825407;29;19925;-49
2022/08/21 07:51:21;;;;;;;;;;;;;;;;;;4825190;29;19931;-49
2022/08/21 07:53:50;;;;;;;;;;;;;;;;;;4825437;29;19947;-47
2022/08/21 07:56:17;;;;;;;;;;;;;;;;;;4839356;29;19935;-48
2022/08/21 07:58:45;;;;;;;;;;;;;;;;;;4825021;29;19929;-50
2022/08/21 08:01:12;;;;;;;;;;;;;;;;;;4824731;29;20453;-47
2022/08/21 08:03:40;;;;;;;;;;;;;;;;;;4824617;29;19928;-48
2022/08/21 08:06:12;;;;;;;;;;;;;;;;;;4825189;29;19931;-46
2022/08/21 08:08:40;;;;;;;;;;;;;;;;;;4813984;29;19929;-47
2022/08/21 08:11:10;;;;;;;;;;;;;;;;;;4806075;29;20023;-47
2022/08/21 08:13:38;;;;;;;;;;;;;;;;;;4806808;29;20339;-45
2022/08/21 08:16:06;;;;;;;;;;;;;;;;;;4806759;29;20008;-50
2022/08/21 08:18:33;;;;;;;;;;;;;;;;;;4806745;29;20389;-51
2022/08/21 08:21:00;;;;;;;;;;;;;;;;;;4806767;29;19960;-46
2022/08/21 08:23:30;;;;;;;;;;;;;;;;;;4806349;29;19929;-47
2022/08/21 08:25:57;;;;;;;;;;;;;;;;;;4806570;29;19985;-50
2022/08/21 08:28:24;;;;;;;;;;;;;;;;;;4820155;29;20297;-49
2022/08/21 08:30:52;;;;;;;;;;;;;;;;;;4806767;29;19925;-49
2022/08/21 08:33:19;;;;;;;;;;;;;;;;;;4806459;29;19925;-48
2022/08/21 08:35:48;;;;;;;;;;;;;;;;;;4806503;29;20004;-48
2022/08/21 08:38:18;;;;;;;;;;;;;;;;;;4806156;29;19948;-48
2022/08/21 08:40:46;;;;;;;;;;;;;;;;;;4805449;29;20012;-47
2022/08/21 08:43:13;;;;;;;;;;;;;;;;;;4806272;29;19925;-48
2022/08/21 08:45:43;;;;;;;;;;;;;;;;;;4806227;29;19925;-48
2022/08/21 08:48:13;;;;;;;;;;;;;;;;;;4806172;29;19985;-47
2022/08/21 08:50:40;;;;;;;;;;;;;;;;;;4805976;29;20702;-48
2022/08/21 08:53:30;;;;;;;;;;;;;;;;;;4806276;29;20296;-49
2022/08/21 08:55:59;;;;;;;;;;;;;;;;;;4807871;29;20354;-49
2022/08/21 08:58:29;;;;;;;;;;;;;;;;;;4805991;29;20373;-51
2022/08/21 09:00:57;;;;;;;;;;;;;;;;;;4806094;29;20400;-48
2022/08/21 09:03:25;;;;;;;;;;;;;;;;;;4805957;29;19925;-50
2022/08/21 09:05:57;;;;;;;;;;;;;;;;;;4805661;29;19925;-48
2022/08/21 09:08:42;;;;;;;;;;;;;;;;;;4804862;29;20301;-47
2022/08/21 09:11:10;;;;;;;;;;;;;;;;;;4803313;29;19932;-49
2022/08/21 09:13:53;;;;;;;;;;;;;;;;;;4805804;29;19933;-52
2022/08/21 09:16:36;;;;;;;;;;;;;;;;;;4805875;29;19925;-47
2022/08/21 09:19:07;;;;;;;;;;;;;;;;;;4807254;29;20530;-49
2022/08/21 09:21:40;;;;;;;;;;;;;;;;;;4823935;29;20008;-44
2022/08/21 09:24:21;;;;;;;;;;;;;;;;;;4823608;29;19982;-48
2022/08/21 09:26:54;;;;;;;;;;;;;;;;;;4824071;29;19931;-49
2022/08/21 09:29:23;;;;;;;;;;;;;;;;;;4823966;29;19963;-50
2022/08/21 09:31:50;;;;;;;;;;;;;;;;;;4823925;29;19925;-49
2022/08/21 09:34:24;;;;;;;;;;;;;;;;;;4823869;29;19928;-48
2022/08/21 09:36:52;;;;;;;;;;;;;;;;;;4823760;29;19925;-50
2022/08/21 09:39:24;;;;;;;;;;;;;;;;;;4823980;29;20268;-50
2022/08/21 09:41:56;;;;;;;;;;;;;;;;;;4823912;29;20011;-47
2022/08/21 09:44:28;;;;;;;;;;;;;;;;;;4823322;29;19929;-46
2022/08/21 09:46:55;;;;;;;;;;;;;;;;;;4823548;29;20262;-47
2022/08/21 09:49:28;;;;;;;;;;;;;;;;;;4823553;29;19950;-48
2022/08/21 09:51:56;;;;;;;;;;;;;;;;;;4823783;29;19929;-47
2022/08/21 09:54:26;;;;;;;;;;;;;;;;;;4823699;29;20445;-45
2022/08/21 09:59:39;;;;;;;;;;;;;;;;;;4823490;29;19928;-46
2022/08/21 10:02:21;;;;;;;;;;;;;;;;;;4823412;29;19929;-49
2022/08/21 10:04:50;;;;;;;;;;;;;;;;;;4823656;29;19947;-46
2022/08/21 10:07:19;;;;;;;;;;;;;;;;;;4823588;29;20401;-50
2022/08/21 10:09:57;;;;;;;;;;;;;;;;;;4823596;29;19925;-46
2022/08/21 10:12:29;;;;;;;;;;;;;;;;;;4823357;29;20373;-48
2022/08/21 10:15:08;;;;;;;;;;;;;;;;;;4823499;29;19964;-48
2022/08/21 10:17:37;;;;;;;;;;;;;;;;;;4822985;29;19932;-46
2022/08/21 10:20:13;;;;;;;;;;;;;;;;;;4813557;29;19931;-48
2022/08/21 10:22:41;;;;;;;;;;;;;;;;;;4804599;29;19929;-50
2022/08/21 10:25:18;;;;;;;;;;;;;;;;;;4804580;29;20377;-48
2022/08/21 10:27:49;;;;;;;;;;;;;;;;;;4805111;29;19982;-48
2022/08/21 10:30:24;;;;;;;;;;;;;;;;;;4804967;29;19932;-47
2022/08/21 10:32:59;;;;;;;;;;;;;;;;;;4804777;29;19932;-47
2022/08/21 10:35:31;;;;;;;;;;;;;;;;;;4808176;29;19929;-45
2022/08/21 10:38:29;;;;;;;;;;;;;;;;;;4808783;29;19925;-49
2022/08/21 10:41:28;;;;;;;;;;;;;;;;;;4806345;29;19924;-48
2022/08/21 10:44:08;;;;;;;;;;;;;;;;;;4808682;29;20833;-47
2022/08/21 10:46:38;;;;;;;;;;;;;;;;;;4808300;29;19932;-50
2022/08/21 10:49:24;;;;;;;;;;;;;;;;;;4808423;29;19964;-48
2022/08/21 10:51:59;;;;;;;;;;;;;;;;;;4808411;29;19928;-47
2022/08/21 10:54:33;;;;;;;;;;;;;;;;;;4808163;29;19929;-49
2022/08/21 10:57:03;;;;;;;;;;;;;;;;;;4821933;29;19964;-48
2022/08/21 10:59:43;;;;;;;;;;;;;;;;;;4808385;29;19925;-51
2022/08/21 11:02:23;;;;;;;;;;;;;;;;;;4808019;29;20293;-51
2022/08/21 11:04:56;;;;;;;;;;;;;;;;;;4808297;29;20007;-50
2022/08/21 11:07:43;;;;;;;;;;;;;;;;;;4808228;29;19981;-49
2022/08/21 11:10:25;;;;;;;;;;;;;;;;;;4808071;29;20346;-49
2022/08/21 11:12:54;;;;;;;;;;;;;;;;;;4807652;29;19932;-47
2022/08/21 11:15:41;;;;;;;;;;;;;;;;;;4807743;29;20038;-48
2022/08/21 11:18:27;;;;;;;;;;;;;;;;;;4807831;29;19929;-50
2022/08/21 11:21:03;;;;;;;;;;;;;;;;;;4823926;29;19924;-47
2022/08/21 11:23:42;;;;;;;;;;;;;;;;;;4825633;29;19928;-50
2022/08/21 11:26:32;;;;;;;;;;;;;;;;;;4825897;29;19932;-48
2022/08/21 11:29:08;;;;;;;;;;;;;;;;;;4822592;29;19962;-51
2022/08/21 11:31:39;;;;;;;;;;;;;;;;;;4806884;29;20002;-48
2022/08/21 11:34:20;;;;;;;;;;;;;;;;;;4807707;29;19956;-47
2022/08/21 11:36:55;;;;;;;;;;;;;;;;;;4807464;29;19925;-50
2022/08/21 11:39:30;;;;;;;;;;;;;;;;;;4807594;29;19924;-47
2022/08/21 11:42:06;;;;;;;;;;;;;;;;;;4807760;29;19956;-48
2022/08/21 11:44:37;;;;;;;;;;;;;;;;;;4807400;29;19970;-50
2022/08/21 11:47:15;;;;;;;;;;;;;;;;;;4806605;29;19925;-48
2022/08/21 11:50:02;;;;;;;;;;;;;;;;;;4807274;29;20377;-48
2022/08/21 11:52:42;;;;;;;;;;;;;;;;;;4806967;29;19932;-48
2022/08/21 11:55:22;;;;;;;;;;;;;;;;;;4807187;29;20355;-50
2022/08/21 11:57:50;;;;;;;;;;;;;;;;;;4807166;29;20385;-48
2022/08/21 12:00:20;;;;;;;;;;;;;;;;;;4807360;29;19974;-48
2022/08/21 12:02:53;;;;;;;;;;;;;;;;;;4807048;29;19933;-46
2022/08/21 12:05:30;;;;;;;;;;;;;;;;;;4806971;29;19948;-51
2022/08/21 12:08:04;;;;;;;;;;;;;;;;;;4807107;29;19972;-46
2022/08/21 12:10:33;;;;;;;;;;;;;;;;;;4806757;29;20377;-50
2022/08/21 12:13:18;;;;;;;;;;;;;;;;;;4806856;29;19925;-50
2022/08/21 12:15:46;;;;;;;;;;;;;;;;;;4789045;29;19959;-48
2022/08/21 12:18:27;;;;;;;;;;;;;;;;;;4788929;29;20374;-48
2022/08/21 12:21:00;;;;;;;;;;;;;;;;;;4821156;29;19974;-51
2022/08/21 12:23:30;;;;;;;;;;;;;;;;;;4824676;29;19962;-47
2022/08/21 12:26:03;;;;;;;;;;;;;;;;;;4824865;29;20020;-51
2022/08/21 12:28:30;;;;;;;;;;;;;;;;;;4824917;29;20046;-50
2022/08/21 12:30:58;;;;;;;;;;;;;;;;;;4824871;29;19934;-50
2022/08/21 12:33:39;;;;;;;;;;;;;;;;;;4824656;29;19928;-48
2022/08/21 12:36:14;;;;;;;;;;;;;;;;;;4824711;29;19929;-49
2022/08/21 12:38:44;;;;;;;;;;;;;;;;;;4814114;29;19929;-49
2022/08/21 12:41:24;;;;;;;;;;;;;;;;;;4806377;29;19925;-49
2022/08/21 12:44:04;;;;;;;;;;;;;;;;;;4806540;29;20312;-51
2022/08/21 12:46:40;;;;;;;;;;;;;;;;;;4806360;29;19929;-53
2022/08/21 12:49:14;;;;;;;;;;;;;;;;;;4806413;29;19928;-48
2022/08/21 12:52:07;;;;;;;;;;;;;;;;;;4806313;29;19925;-49
2022/08/21 12:54:42;;;;;;;;;;;;;;;;;;4806085;29;19944;-51
2022/08/21 12:57:18;;;;;;;;;;;;;;;;;;4806123;29;20429;-47
2022/08/21 12:59:45;;;;;;;;;;;;;;;;;;4805568;29;20282;-48
2022/08/21 13:02:21;;;;;;;;;;;;;;;;;;4806152;29;20020;-48
2022/08/21 13:04:49;;;;;;;;;;;;;;;;;;4806024;29;19924;-50
2022/08/21 13:07:22;;;;;;;;;;;;;;;;;;4806104;29;19957;-50
2022/08/21 13:09:52;;;;;;;;;;;;;;;;;;4806164;29;19929;-49
2022/08/21 13:12:21;;;;;;;;;;;;;;;;;;4817311;29;20334;-49
2022/08/21 13:14:49;;;;;;;;;;;;;;;;;;4823995;29;20001;-48
2022/08/21 13:17:18;;;;;;;;;;;;;;;;;;4824045;29;20308;-50
2022/08/21 13:19:56;;;;;;;;;;;;;;;;;;4815461;29;20270;-50
2022/08/21 13:22:23;;;;;;;;;;;;;;;;;;4805894;29;19929;-53
2022/08/21 13:25:00;;;;;;;;;;;;;;;;;;4805686;29;19925;-48
2022/08/21 13:27:33;;;;;;;;;;;;;;;;;;4805809;29;20019;-48
2022/08/21 13:30:03;;;;;;;;;;;;;;;;;;4805592;29;20400;-47
2022/08/21 13:32:32;;;;;;;;;;;;;;;;;;4805513;29;20016;-49
2022/08/21 13:35:06;;;;;;;;;;;;;;;;;;4805536;29;20401;-50
2022/08/21 13:37:42;;;;;;;;;;;;;;;;;;4805691;29;19936;-50
2022/08/21 13:40:10;;;;;;;;;;;;;;;;;;4805481;29;19975;-49
2022/08/21 13:42:39;;;;;;;;;;;;;;;;;;4805158;29;19925;-48
2022/08/21 13:45:12;;;;;;;;;;;;;;;;;;4806256;29;20312;-49
2022/08/21 13:47:39;;;;;;;;;;;;;;;;;;4804566;29;19928;-50
2022/08/21 13:50:11;;;;;;;;;;;;;;;;;;4805716;29;19994;-47
2022/08/21 13:52:46;;;;;;;;;;;;;;;;;;4805041;29;19929;-48
2022/08/21 13:55:16;;;;;;;;;;;;;;;;;;4805246;29;19925;-48
2022/08/21 13:57:43;;;;;;;;;;;;;;;;;;4805286;29;19932;-50
2022/08/21 14:00:16;;;;;;;;;;;;;;;;;;4805163;29;19973;-49
2022/08/21 14:02:45;;;;;;;;;;;;;;;;;;4805272;29;20466;-48
2022/08/21 14:05:21;;;;;;;;;;;;;;;;;;4804872;29;19975;-48
2022/08/21 14:07:50;;;;;;;;;;;;;;;;;;4804933;29;19933;-50
2022/08/21 14:10:19;;;;;;;;;;;;;;;;;;4805002;29;19925;-49
2022/08/21 14:12:51;;;;;;;;;;;;;;;;;;4805295;29;19986;-53
2022/08/21 14:15:23;;;;;;;;;;;;;;;;;;4805204;29;20003;-47
2022/08/21 14:17:50;;;;;;;;;;;;;;;;;;4805174;29;20389;-50
2022/08/21 14:20:31;;;;;;;;;;;;;;;;;;4816548;29;19940;-51
2022/08/21 14:23:01;;;;;;;;;;;;;;;;;;4823278;29;20358;-50
2022/08/21 14:25:30;;;;;;;;;;;;;;;;;;4823312;29;19935;-51
2022/08/21 14:28:06;;;;;;;;;;;;;;;;;;4823115;29;19925;-49
2022/08/21 14:30:39;;;;;;;;;;;;;;;;;;4823018;29;19972;-49
2022/08/21 14:33:16;;;;;;;;;;;;;;;;;;4823170;29;19925;-51
2022/08/21 14:35:44;;;;;;;;;;;;;;;;;;4822647;29;19925;-49
2022/08/21 14:38:16;;;;;;;;;;;;;;;;;;4822626;29;19924;-49
2022/08/21 14:40:45;;;;;;;;;;;;;;;;;;4822759;29;20404;-51
2022/08/21 14:43:12;;;;;;;;;;;;;;;;;;4836603;29;20385;-50
2022/08/21 14:45:40;;;;;;;;;;;;;;;;;;4835588;29;19947;-52
2022/08/21 14:48:08;;;;;;;;;;;;;;;;;;4822473;29;19932;-47
2022/08/21 14:50:35;;;;;;;;;;;;;;;;;;4823139;29;20281;-49
2022/08/21 14:53:03;;;;;;;;;;;;;;;;;;4822714;29;19928;-50
2022/08/21 14:58:24;;;;;;;;;;;;;;;;;;4822582;29;20049;-48
2022/08/21 15:00:54;;;;;;;;;;;;;;;;;;4822844;29;20388;-51
2022/08/21 15:03:24;;;;;;;;;;;;;;;;;;4822843;29;19929;-49
2022/08/21 15:05:51;;;;;;;;;;;;;;;;;;4822534;29;20015;-50
2022/08/21 15:08:18;;;;;;;;;;;;;;;;;;4822753;29;20477;-48
2022/08/21 15:10:46;;;;;;;;;;;;;;;;;;4822699;29;19936;-49
2022/08/21 15:13:33;;;;;;;;;;;;;;;;;;4812485;29;19932;-48
2022/08/21 15:16:01;;;;;;;;;;;;;;;;;;4804193;29;19988;-49
2022/08/21 15:18:29;;;;;;;;;;;;;;;;;;4803751;29;20381;-48
2022/08/21 15:20:57;;;;;;;;;;;;;;;;;;4821914;29;19925;-50
2022/08/21 15:23:24;;;;;;;;;;;;;;;;;;4825526;29;19935;-52
2022/08/21 15:25:52;;;;;;;;;;;;;;;;;;4825940;29;20011;-51
2022/08/21 15:28:21;;;;;;;;;;;;;;;;;;4825943;29;19929;-51
2022/08/21 15:30:48;;;;;;;;;;;;;;;;;;4825480;29;19924;-47
2022/08/21 15:33:16;;;;;;;;;;;;;;;;;;4825757;29;20419;-47
2022/08/21 15:35:43;;;;;;;;;;;;;;;;;;4825839;29;19932;-57
2022/08/21 15:38:10;;;;;;;;;;;;;;;;;;4825578;29;19960;-48
2022/08/21 15:40:38;;;;;;;;;;;;;;;;;;4825782;29;19924;-51
2022/08/21 15:43:05;;;;;;;;;;;;;;;;;;4825689;29;19925;-53
2022/08/21 15:45:33;;;;;;;;;;;;;;;;;;4825693;29;19928;-50
2022/08/21 15:48:01;;;;;;;;;;;;;;;;;;4824945;29;20004;-48
2022/08/21 15:50:28;;;;;;;;;;;;;;;;;;4825435;29;19989;-48
2022/08/21 15:52:55;;;;;;;;;;;;;;;;;;4825515;29;19929;-48
2022/08/21 15:55:22;;;;;;;;;;;;;;;;;;4825528;29;20019;-51
2022/08/21 15:57:50;;;;;;;;;;;;;;;;;;4825481;29;20312;-47
2022/08/21 16:00:25;;;;;;;;;;;;;;;;;;4825338;29;20011;-51
2022/08/21 16:02:53;;;;;;;;;;;;;;;;;;4825402;29;19925;-47
2022/08/21 16:05:21;;;;;;;;;;;;;;;;;;4825358;29;19988;-51
2022/08/21 16:07:49;;;;;;;;;;;;;;;;;;4825046;29;19956;-49
2022/08/21 16:10:17;;;;;;;;;;;;;;;;;;4825393;29;20385;-49
2022/08/21 16:12:47;;;;;;;;;;;;;;;;;;4824994;29;19977;-47
2022/08/21 16:15:15;;;;;;;;;;;;;;;;;;4825449;29;19924;-51
2022/08/21 16:17:47;;;;;;;;;;;;;;;;;;4825185;29;19976;-49
2022/08/21 16:20:16;;;;;;;;;;;;;;;;;;4814110;29;19932;-51
2022/08/21 16:22:44;;;;;;;;;;;;;;;;;;4807287;29;19928;-52
2022/08/21 16:25:13;;;;;;;;;;;;;;;;;;4806796;29;19929;-47
2022/08/21 16:27:42;;;;;;;;;;;;;;;;;;4806889;29;19974;-46
2022/08/21 16:30:09;;;;;;;;;;;;;;;;;;4806954;29;19929;-49
2022/08/21 16:32:36;;;;;;;;;;;;;;;;;;4805307;29;19929;-50
2022/08/21 16:35:04;;;;;;;;;;;;;;;;;;4806543;29;20347;-49
2022/08/21 16:37:31;;;;;;;;;;;;;;;;;;4806575;29;20373;-51
2022/08/21 16:39:58;;;;;;;;;;;;;;;;;;4807038;29;19968;-51
2022/08/21 16:42:25;;;;;;;;;;;;;;;;;;4806515;29;19925;-50
2022/08/21 16:44:54;;;;;;;;;;;;;;;;;;4806830;29;19947;-48
2022/08/21 16:47:25;;;;;;;;;;;;;;;;;;4806563;29;19937;-48
2022/08/21 16:49:53;;;;;;;;;;;;;;;;;;4806632;29;19948;-47
2022/08/21 16:52:20;;;;;;;;;;;;;;;;;;4806467;29;19924;-47
2022/08/21 16:54:48;;;;;;;;;;;;;;;;;;4804983;29;19972;-47
2022/08/21 16:57:15;;;;;;;;;;;;;;;;;;4803439;29;19932;-47
2022/08/21 16:59:42;;;;;;;;;;;;;;;;;;4803268;29;19974;-50
2022/08/21 17:02:17;;;;;;;;;;;;;;;;;;4804370;29;19935;-49
2022/08/21 17:04:44;;;;;;;;;;;;;;;;;;4805426;29;19929;-49
2022/08/21 17:07:11;;;;;;;;;;;;;;;;;;4805878;29;19936;-51
2022/08/21 17:09:41;;;;;;;;;;;;;;;;;;4805836;29;19929;-47
2022/08/21 17:12:09;;;;;;;;;;;;;;;;;;4804223;29;19929;-48